sensor_id;sensor_type;location;lat;lon;timestamp;P1;durP1;ratioP1;P2;durP2;ratioP2
15342;SDS011;7771;48.478;8.936;2024-01-27T00:01:11;10.47;;;5.20;;
15342;SDS011;7771;48.478;8.936;2024-01-27T00:03:38;9.07;;;4.40;;
15342;SDS011;7771;48.478;8.936;2024-01-27T00:06:05;8.03;;;4.40;;
15342;SDS011;7771;48.478;8.936;2024-01-27T00:08:32;10.60;;;4.70;;
15342;SDS011;7771;48.478;8.936;2024-01-27T00:11:00;10.03;;;5.43;;
15342;SDS011;7771;48.478;8.936;2024-01-27T00:13:27;8.87;;;4.70;;
15342;SDS011;7771;48.478;8.936;2024-01-27T00:15:54;13.43;;;6.33;;
15342;SDS011;7771;48.478;8.936;2024-01-27T00:18:21;8.97;;;4.50;;
15342;SDS011;7771;48.478;8.936;2024-01-27T00:20:48;4.73;;;4.00;;
15342;SDS011;7771;48.478;8.936;2024-01-27T00:23:16;7.80;;;4.23;;
15342;SDS011;7771;48.478;8.936;2024-01-27T00:25:43;10.33;;;6.53;;
15342;SDS011;7771;48.478;8.936;2024-01-27T00:28:09;11.70;;;5.90;;
15342;SDS011;7771;48.478;8.936;2024-01-27T00:30:37;8.20;;;5.63;;
15342;SDS011;7771;48.478;8.936;2024-01-27T00:33:05;8.20;;;4.47;;
15342;SDS011;7771;48.478;8.936;2024-01-27T00:35:31;7.87;;;4.87;;
15342;SDS011;7771;48.478;8.936;2024-01-27T00:37:59;7.37;;;4.50;;
15342;SDS011;7771;48.478;8.936;2024-01-27T00:40:25;10.03;;;3.33;;
15342;SDS011;7771;48.478;8.936;2024-01-27T00:45:39;12.67;;;6.40;;
15342;SDS011;7771;48.478;8.936;2024-01-27T00:48:06;10.17;;;5.93;;
15342;SDS011;7771;48.478;8.936;2024-01-27T00:50:32;11.57;;;6.20;;
15342;SDS011;7771;48.478;8.936;2024-01-27T00:52:59;9.67;;;5.67;;
15342;SDS011;7771;48.478;8.936;2024-01-27T00:55:26;8.53;;;5.70;;
15342;SDS011;7771;48.478;8.936;2024-01-27T00:57:53;9.30;;;4.20;;
15342;SDS011;7771;48.478;8.936;2024-01-27T01:00:20;6.73;;;4.27;;
15342;SDS011;7771;48.478;8.936;2024-01-27T01:02:47;6.70;;;4.70;;
15342;SDS011;7771;48.478;8.936;2024-01-27T01:05:14;8.27;;;4.93;;
15342;SDS011;7771;48.478;8.936;2024-01-27T01:07:41;9.13;;;4.63;;
15342;SDS011;7771;48.478;8.936;2024-01-27T01:10:08;6.80;;;4.00;;
15342;SDS011;7771;48.478;8.936;2024-01-27T01:12:35;6.60;;;4.57;;
15342;SDS011;7771;48.478;8.936;2024-01-27T01:15:02;5.57;;;4.37;;
15342;SDS011;7771;48.478;8.936;2024-01-27T01:17:30;5.47;;;4.07;;
15342;SDS011;7771;48.478;8.936;2024-01-27T01:19:56;6.57;;;4.03;;
15342;SDS011;7771;48.478;8.936;2024-01-27T01:22:23;5.77;;;3.73;;
15342;SDS011;7771;48.478;8.936;2024-01-27T01:24:50;6.70;;;4.43;;
15342;SDS011;7771;48.478;8.936;2024-01-27T01:27:16;10.17;;;4.97;;
15342;SDS011;7771;48.478;8.936;2024-01-27T01:29:45;10.10;;;4.60;;
15342;SDS011;7771;48.478;8.936;2024-01-27T01:32:12;8.13;;;4.67;;
15342;SDS011;7771;48.478;8.936;2024-01-27T01:34:40;9.10;;;5.27;;
15342;SDS011;7771;48.478;8.936;2024-01-27T01:37:07;14.60;;;7.53;;
15342;SDS011;7771;48.478;8.936;2024-01-27T01:39:34;27.60;;;10.70;;
15342;SDS011;7771;48.478;8.936;2024-01-27T01:42:01;22.43;;;9.90;;
15342;SDS011;7771;48.478;8.936;2024-01-27T01:44:29;14.50;;;7.57;;
15342;SDS011;7771;48.478;8.936;2024-01-27T01:46:55;15.23;;;7.27;;
15342;SDS011;7771;48.478;8.936;2024-01-27T01:49:22;12.63;;;6.30;;
15342;SDS011;7771;48.478;8.936;2024-01-27T01:51:51;14.43;;;6.67;;
15342;SDS011;7771;48.478;8.936;2024-01-27T01:54:18;12.77;;;6.13;;
15342;SDS011;7771;48.478;8.936;2024-01-27T01:56:45;9.00;;;5.60;;
15342;SDS011;7771;48.478;8.936;2024-01-27T01:59:11;7.33;;;4.07;;
15342;SDS011;7771;48.478;8.936;2024-01-27T02:01:39;6.30;;;4.20;;
15342;SDS011;7771;48.478;8.936;2024-01-27T02:04:07;5.30;;;4.47;;
15342;SDS011;7771;48.478;8.936;2024-01-27T02:06:33;5.10;;;4.10;;
15342;SDS011;7771;48.478;8.936;2024-01-27T02:09:00;4.47;;;3.57;;
15342;SDS011;7771;48.478;8.936;2024-01-27T02:11:28;5.00;;;3.97;;
15342;SDS011;7771;48.478;8.936;2024-01-27T02:13:55;4.70;;;3.70;;
15342;SDS011;7771;48.478;8.936;2024-01-27T02:16:21;7.67;;;3.97;;
15342;SDS011;7771;48.478;8.936;2024-01-27T02:18:50;5.90;;;4.00;;
15342;SDS011;7771;48.478;8.936;2024-01-27T02:21:16;5.07;;;4.03;;
15342;SDS011;7771;48.478;8.936;2024-01-27T02:23:43;5.60;;;3.93;;
15342;SDS011;7771;48.478;8.936;2024-01-27T02:26:12;4.10;;;3.57;;
15342;SDS011;7771;48.478;8.936;2024-01-27T02:28:40;6.47;;;3.53;;
15342;SDS011;7771;48.478;8.936;2024-01-27T02:31:08;5.50;;;3.67;;
15342;SDS011;7771;48.478;8.936;2024-01-27T02:33:35;7.17;;;4.10;;
15342;SDS011;7771;48.478;8.936;2024-01-27T02:36:02;6.30;;;4.43;;
15342;SDS011;7771;48.478;8.936;2024-01-27T02:38:28;4.30;;;3.87;;
15342;SDS011;7771;48.478;8.936;2024-01-27T02:40:56;5.57;;;3.90;;
15342;SDS011;7771;48.478;8.936;2024-01-27T02:43:22;6.13;;;4.43;;
15342;SDS011;7771;48.478;8.936;2024-01-27T02:45:50;7.67;;;4.47;;
15342;SDS011;7771;48.478;8.936;2024-01-27T02:48:16;8.90;;;4.60;;
15342;SDS011;7771;48.478;8.936;2024-01-27T02:50:44;9.57;;;6.20;;
15342;SDS011;7771;48.478;8.936;2024-01-27T02:53:12;6.93;;;5.10;;
15342;SDS011;7771;48.478;8.936;2024-01-27T02:55:38;7.93;;;5.70;;
15342;SDS011;7771;48.478;8.936;2024-01-27T02:58:06;11.40;;;6.17;;
15342;SDS011;7771;48.478;8.936;2024-01-27T03:00:33;10.07;;;6.30;;
15342;SDS011;7771;48.478;8.936;2024-01-27T03:03:01;10.30;;;6.53;;
15342;SDS011;7771;48.478;8.936;2024-01-27T03:05:28;13.93;;;7.07;;
15342;SDS011;7771;48.478;8.936;2024-01-27T03:07:55;7.57;;;5.30;;
15342;SDS011;7771;48.478;8.936;2024-01-27T03:10:21;7.33;;;4.67;;
15342;SDS011;7771;48.478;8.936;2024-01-27T03:12:49;5.60;;;4.50;;
15342;SDS011;7771;48.478;8.936;2024-01-27T03:15:16;6.40;;;4.20;;
15342;SDS011;7771;48.478;8.936;2024-01-27T03:17:43;20.33;;;11.00;;
15342;SDS011;7771;48.478;8.936;2024-01-27T03:20:10;8.97;;;6.13;;
15342;SDS011;7771;48.478;8.936;2024-01-27T03:22:37;4.70;;;4.07;;
15342;SDS011;7771;48.478;8.936;2024-01-27T03:25:06;6.63;;;3.90;;
15342;SDS011;7771;48.478;8.936;2024-01-27T03:27:33;4.47;;;3.57;;
15342;SDS011;7771;48.478;8.936;2024-01-27T03:30:00;4.53;;;4.10;;
15342;SDS011;7771;48.478;8.936;2024-01-27T03:37:57;5.53;;;3.47;;
15342;SDS011;7771;48.478;8.936;2024-01-27T03:40:24;5.87;;;3.97;;
15342;SDS011;7771;48.478;8.936;2024-01-27T03:42:52;4.10;;;3.67;;
15342;SDS011;7771;48.478;8.936;2024-01-27T03:45:19;6.43;;;3.90;;
15342;SDS011;7771;48.478;8.936;2024-01-27T03:47:46;5.33;;;3.87;;
15342;SDS011;7771;48.478;8.936;2024-01-27T03:50:12;6.97;;;4.37;;
15342;SDS011;7771;48.478;8.936;2024-01-27T03:52:39;5.80;;;3.53;;
15342;SDS011;7771;48.478;8.936;2024-01-27T03:55:06;5.00;;;3.47;;
15342;SDS011;7771;48.478;8.936;2024-01-27T03:57:34;5.27;;;3.47;;
15342;SDS011;7771;48.478;8.936;2024-01-27T04:00:02;6.40;;;3.60;;
15342;SDS011;7771;48.478;8.936;2024-01-27T04:02:30;5.13;;;3.13;;
15342;SDS011;7771;48.478;8.936;2024-01-27T04:04:58;3.93;;;3.53;;
15342;SDS011;7771;48.478;8.936;2024-01-27T04:07:24;6.33;;;4.10;;
15342;SDS011;7771;48.478;8.936;2024-01-27T04:09:52;4.57;;;3.40;;
15342;SDS011;7771;48.478;8.936;2024-01-27T04:12:18;4.40;;;3.30;;
15342;SDS011;7771;48.478;8.936;2024-01-27T04:14:47;7.23;;;3.70;;
15342;SDS011;7771;48.478;8.936;2024-01-27T04:17:14;5.97;;;3.27;;
15342;SDS011;7771;48.478;8.936;2024-01-27T04:19:42;6.10;;;4.00;;
15342;SDS011;7771;48.478;8.936;2024-01-27T04:22:09;5.70;;;3.80;;
15342;SDS011;7771;48.478;8.936;2024-01-27T04:24:37;5.53;;;3.90;;
15342;SDS011;7771;48.478;8.936;2024-01-27T04:27:04;6.37;;;3.60;;
15342;SDS011;7771;48.478;8.936;2024-01-27T04:29:31;6.53;;;4.13;;
15342;SDS011;7771;48.478;8.936;2024-01-27T04:31:58;5.10;;;3.63;;
15342;SDS011;7771;48.478;8.936;2024-01-27T04:34:25;4.73;;;3.67;;
15342;SDS011;7771;48.478;8.936;2024-01-27T04:36:53;4.23;;;3.80;;
15342;SDS011;7771;48.478;8.936;2024-01-27T04:39:21;4.20;;;3.30;;
15342;SDS011;7771;48.478;8.936;2024-01-27T04:41:47;5.33;;;3.70;;
15342;SDS011;7771;48.478;8.936;2024-01-27T04:44:14;11.50;;;3.73;;
15342;SDS011;7771;48.478;8.936;2024-01-27T04:46:41;5.60;;;3.77;;
15342;SDS011;7771;48.478;8.936;2024-01-27T04:49:09;5.13;;;4.23;;
15342;SDS011;7771;48.478;8.936;2024-01-27T04:51:35;5.73;;;4.10;;
15342;SDS011;7771;48.478;8.936;2024-01-27T04:54:02;8.07;;;4.23;;
15342;SDS011;7771;48.478;8.936;2024-01-27T04:56:29;8.50;;;4.70;;
15342;SDS011;7771;48.478;8.936;2024-01-27T04:58:57;5.57;;;4.10;;
15342;SDS011;7771;48.478;8.936;2024-01-27T05:01:25;7.47;;;4.27;;
15342;SDS011;7771;48.478;8.936;2024-01-27T05:03:52;6.67;;;3.70;;
15342;SDS011;7771;48.478;8.936;2024-01-27T05:06:19;5.53;;;4.20;;
15342;SDS011;7771;48.478;8.936;2024-01-27T05:08:47;4.53;;;3.80;;
15342;SDS011;7771;48.478;8.936;2024-01-27T05:11:15;4.77;;;3.73;;
15342;SDS011;7771;48.478;8.936;2024-01-27T05:13:41;4.47;;;3.50;;
15342;SDS011;7771;48.478;8.936;2024-01-27T05:16:09;5.37;;;4.03;;
15342;SDS011;7771;48.478;8.936;2024-01-27T05:18:36;4.60;;;3.80;;
15342;SDS011;7771;48.478;8.936;2024-01-27T05:21:03;4.10;;;3.70;;
15342;SDS011;7771;48.478;8.936;2024-01-27T05:23:32;6.67;;;3.87;;
15342;SDS011;7771;48.478;8.936;2024-01-27T05:25:58;5.33;;;3.80;;
15342;SDS011;7771;48.478;8.936;2024-01-27T05:28:26;6.63;;;4.07;;
15342;SDS011;7771;48.478;8.936;2024-01-27T05:30:54;5.40;;;4.47;;
15342;SDS011;7771;48.478;8.936;2024-01-27T05:33:20;11.20;;;6.33;;
15342;SDS011;7771;48.478;8.936;2024-01-27T05:35:47;41.47;;;26.43;;
15342;SDS011;7771;48.478;8.936;2024-01-27T05:38:15;25.03;;;18.07;;
15342;SDS011;7771;48.478;8.936;2024-01-27T05:40:42;8.57;;;6.03;;
15342;SDS011;7771;48.478;8.936;2024-01-27T05:43:09;7.70;;;4.57;;
15342;SDS011;7771;48.478;8.936;2024-01-27T05:45:36;5.80;;;4.20;;
15342;SDS011;7771;48.478;8.936;2024-01-27T05:48:05;13.83;;;7.30;;
15342;SDS011;7771;48.478;8.936;2024-01-27T05:50:32;5.03;;;4.40;;
15342;SDS011;7771;48.478;8.936;2024-01-27T05:53:00;5.67;;;4.17;;
15342;SDS011;7771;48.478;8.936;2024-01-27T05:55:27;4.93;;;4.00;;
15342;SDS011;7771;48.478;8.936;2024-01-27T05:57:53;7.40;;;5.03;;
15342;SDS011;7771;48.478;8.936;2024-01-27T06:00:21;6.40;;;4.70;;
15342;SDS011;7771;48.478;8.936;2024-01-27T06:02:49;7.73;;;4.37;;
15342;SDS011;7771;48.478;8.936;2024-01-27T06:05:17;6.83;;;4.97;;
15342;SDS011;7771;48.478;8.936;2024-01-27T06:07:43;6.30;;;4.93;;
15342;SDS011;7771;48.478;8.936;2024-01-27T06:12:53;12.47;;;8.33;;
15342;SDS011;7771;48.478;8.936;2024-01-27T06:15:19;14.53;;;6.83;;
15342;SDS011;7771;48.478;8.936;2024-01-27T06:17:47;8.70;;;6.50;;
15342;SDS011;7771;48.478;8.936;2024-01-27T06:20:13;11.93;;;7.60;;
15342;SDS011;7771;48.478;8.936;2024-01-27T06:22:41;8.37;;;6.03;;
15342;SDS011;7771;48.478;8.936;2024-01-27T06:25:09;8.97;;;6.00;;
15342;SDS011;7771;48.478;8.936;2024-01-27T06:27:35;7.97;;;5.57;;
15342;SDS011;7771;48.478;8.936;2024-01-27T06:30:03;7.20;;;5.27;;
15342;SDS011;7771;48.478;8.936;2024-01-27T06:32:30;6.70;;;4.77;;
15342;SDS011;7771;48.478;8.936;2024-01-27T06:34:56;9.07;;;4.50;;
15342;SDS011;7771;48.478;8.936;2024-01-27T06:37:24;10.60;;;4.83;;
15342;SDS011;7771;48.478;8.936;2024-01-27T06:39:52;7.37;;;4.60;;
15342;SDS011;7771;48.478;8.936;2024-01-27T06:42:18;7.37;;;5.20;;
15342;SDS011;7771;48.478;8.936;2024-01-27T06:44:45;8.13;;;5.03;;
15342;SDS011;7771;48.478;8.936;2024-01-27T06:47:14;9.07;;;4.70;;
15342;SDS011;7771;48.478;8.936;2024-01-27T06:49:41;5.63;;;4.60;;
15342;SDS011;7771;48.478;8.936;2024-01-27T06:52:08;8.77;;;4.80;;
15342;SDS011;7771;48.478;8.936;2024-01-27T06:54:36;6.80;;;4.30;;
15342;SDS011;7771;48.478;8.936;2024-01-27T06:57:03;6.93;;;4.53;;
15342;SDS011;7771;48.478;8.936;2024-01-27T06:59:30;6.10;;;4.73;;
15342;SDS011;7771;48.478;8.936;2024-01-27T07:01:57;5.80;;;4.50;;
15342;SDS011;7771;48.478;8.936;2024-01-27T07:04:24;8.90;;;4.37;;
15342;SDS011;7771;48.478;8.936;2024-01-27T07:06:52;6.27;;;4.70;;
15342;SDS011;7771;48.478;8.936;2024-01-27T07:09:19;7.73;;;5.43;;
15342;SDS011;7771;48.478;8.936;2024-01-27T07:11:46;10.23;;;5.60;;
15342;SDS011;7771;48.478;8.936;2024-01-27T07:14:13;6.93;;;5.07;;
15342;SDS011;7771;48.478;8.936;2024-01-27T07:16:40;7.73;;;4.60;;
15342;SDS011;7771;48.478;8.936;2024-01-27T07:19:08;7.13;;;5.27;;
15342;SDS011;7771;48.478;8.936;2024-01-27T07:21:35;6.70;;;4.60;;
15342;SDS011;7771;48.478;8.936;2024-01-27T07:24:03;8.50;;;6.20;;
15342;SDS011;7771;48.478;8.936;2024-01-27T07:26:32;8.83;;;5.40;;
15342;SDS011;7771;48.478;8.936;2024-01-27T07:28:59;8.57;;;5.53;;
15342;SDS011;7771;48.478;8.936;2024-01-27T07:31:28;11.13;;;5.97;;
15342;SDS011;7771;48.478;8.936;2024-01-27T07:33:55;9.57;;;6.20;;
15342;SDS011;7771;48.478;8.936;2024-01-27T07:36:21;7.27;;;5.00;;
15342;SDS011;7771;48.478;8.936;2024-01-27T07:38:49;14.97;;;5.43;;
15342;SDS011;7771;48.478;8.936;2024-01-27T07:41:16;8.37;;;4.87;;
15342;SDS011;7771;48.478;8.936;2024-01-27T07:43:43;8.33;;;5.63;;
15342;SDS011;7771;48.478;8.936;2024-01-27T07:46:10;8.37;;;5.73;;
15342;SDS011;7771;48.478;8.936;2024-01-27T07:48:37;11.17;;;5.53;;
15342;SDS011;7771;48.478;8.936;2024-01-27T07:51:04;7.53;;;5.53;;
15342;SDS011;7771;48.478;8.936;2024-01-27T07:53:32;9.97;;;5.77;;
15342;SDS011;7771;48.478;8.936;2024-01-27T07:55:58;9.03;;;6.27;;
15342;SDS011;7771;48.478;8.936;2024-01-27T07:58:25;9.60;;;5.60;;
15342;SDS011;7771;48.478;8.936;2024-01-27T08:00:54;8.73;;;5.30;;
15342;SDS011;7771;48.478;8.936;2024-01-27T08:03:22;8.27;;;5.70;;
15342;SDS011;7771;48.478;8.936;2024-01-27T08:05:48;8.20;;;5.80;;
15342;SDS011;7771;48.478;8.936;2024-01-27T08:08:16;11.33;;;5.40;;
15342;SDS011;7771;48.478;8.936;2024-01-27T08:10:44;9.17;;;5.30;;
15342;SDS011;7771;48.478;8.936;2024-01-27T08:13:10;10.00;;;5.40;;
15342;SDS011;7771;48.478;8.936;2024-01-27T08:15:38;8.43;;;5.60;;
15342;SDS011;7771;48.478;8.936;2024-01-27T08:18:04;9.43;;;5.57;;
15342;SDS011;7771;48.478;8.936;2024-01-27T08:20:32;7.00;;;5.30;;
15342;SDS011;7771;48.478;8.936;2024-01-27T08:23:00;6.20;;;4.77;;
15342;SDS011;7771;48.478;8.936;2024-01-27T08:25:27;5.73;;;5.00;;
15342;SDS011;7771;48.478;8.936;2024-01-27T08:27:54;5.93;;;4.27;;
15342;SDS011;7771;48.478;8.936;2024-01-27T08:30:22;5.77;;;4.63;;
15342;SDS011;7771;48.478;8.936;2024-01-27T08:32:49;7.30;;;4.50;;
15342;SDS011;7771;48.478;8.936;2024-01-27T08:35:15;6.50;;;4.73;;
15342;SDS011;7771;48.478;8.936;2024-01-27T08:37:43;5.97;;;4.07;;
15342;SDS011;7771;48.478;8.936;2024-01-27T08:40:10;5.47;;;3.97;;
15342;SDS011;7771;48.478;8.936;2024-01-27T08:42:37;6.43;;;4.43;;
15342;SDS011;7771;48.478;8.936;2024-01-27T08:45:04;5.40;;;4.33;;
15342;SDS011;7771;48.478;8.936;2024-01-27T08:47:30;9.37;;;5.97;;
15342;SDS011;7771;48.478;8.936;2024-01-27T08:49:57;8.53;;;5.30;;
15342;SDS011;7771;48.478;8.936;2024-01-27T08:52:25;9.33;;;5.10;;
15342;SDS011;7771;48.478;8.936;2024-01-27T08:54:53;8.20;;;4.63;;
15342;SDS011;7771;48.478;8.936;2024-01-27T08:57:19;6.00;;;4.70;;
15342;SDS011;7771;48.478;8.936;2024-01-27T08:59:47;9.80;;;5.37;;
15342;SDS011;7771;48.478;8.936;2024-01-27T09:02:13;8.70;;;5.97;;
15342;SDS011;7771;48.478;8.936;2024-01-27T09:04:41;8.07;;;5.90;;
15342;SDS011;7771;48.478;8.936;2024-01-27T09:07:09;7.63;;;5.27;;
15342;SDS011;7771;48.478;8.936;2024-01-27T09:09:36;17.57;;;6.33;;
15342;SDS011;7771;48.478;8.936;2024-01-27T09:12:03;8.40;;;5.63;;
15342;SDS011;7771;48.478;8.936;2024-01-27T09:14:30;8.40;;;6.00;;
15342;SDS011;7771;48.478;8.936;2024-01-27T09:16:57;8.03;;;5.87;;
15342;SDS011;7771;48.478;8.936;2024-01-27T09:19:25;10.13;;;5.97;;
15342;SDS011;7771;48.478;8.936;2024-01-27T09:21:52;8.10;;;5.83;;
15342;SDS011;7771;48.478;8.936;2024-01-27T09:24:20;8.07;;;5.67;;
15342;SDS011;7771;48.478;8.936;2024-01-27T09:26:47;7.20;;;4.80;;
15342;SDS011;7771;48.478;8.936;2024-01-27T09:29:14;8.83;;;5.40;;
15342;SDS011;7771;48.478;8.936;2024-01-27T09:31:41;8.83;;;4.93;;
15342;SDS011;7771;48.478;8.936;2024-01-27T09:34:08;7.40;;;4.70;;
15342;SDS011;7771;48.478;8.936;2024-01-27T09:36:35;6.87;;;5.10;;
15342;SDS011;7771;48.478;8.936;2024-01-27T09:39:02;9.83;;;5.13;;
15342;SDS011;7771;48.478;8.936;2024-01-27T09:41:30;8.73;;;5.50;;
15342;SDS011;7771;48.478;8.936;2024-01-27T09:44:01;8.03;;;5.57;;
15342;SDS011;7771;48.478;8.936;2024-01-27T09:46:30;8.57;;;6.13;;
15342;SDS011;7771;48.478;8.936;2024-01-27T09:48:56;8.87;;;6.07;;
15342;SDS011;7771;48.478;8.936;2024-01-27T09:51:23;9.93;;;6.10;;
15342;SDS011;7771;48.478;8.936;2024-01-27T09:53:50;8.77;;;5.50;;
15342;SDS011;7771;48.478;8.936;2024-01-27T09:56:17;12.43;;;5.70;;
15342;SDS011;7771;48.478;8.936;2024-01-27T09:58:45;9.17;;;5.53;;
15342;SDS011;7771;48.478;8.936;2024-01-27T10:01:14;9.13;;;5.80;;
15342;SDS011;7771;48.478;8.936;2024-01-27T10:03:41;12.00;;;6.30;;
15342;SDS011;7771;48.478;8.936;2024-01-27T10:06:09;9.90;;;7.33;;
15342;SDS011;7771;48.478;8.936;2024-01-27T10:08:37;9.83;;;6.07;;
15342;SDS011;7771;48.478;8.936;2024-01-27T10:11:06;10.70;;;6.40;;
15342;SDS011;7771;48.478;8.936;2024-01-27T10:13:33;8.53;;;5.67;;
15342;SDS011;7771;48.478;8.936;2024-01-27T10:16:01;10.10;;;6.00;;
15342;SDS011;7771;48.478;8.936;2024-01-27T10:18:29;12.80;;;6.13;;
15342;SDS011;7771;48.478;8.936;2024-01-27T10:20:56;8.73;;;6.43;;
15342;SDS011;7771;48.478;8.936;2024-01-27T10:23:23;10.53;;;6.33;;
15342;SDS011;7771;48.478;8.936;2024-01-27T10:25:50;9.23;;;6.10;;
15342;SDS011;7771;48.478;8.936;2024-01-27T10:28:17;9.80;;;6.20;;
15342;SDS011;7771;48.478;8.936;2024-01-27T10:30:45;10.47;;;6.70;;
15342;SDS011;7771;48.478;8.936;2024-01-27T10:33:14;9.10;;;6.20;;
15342;SDS011;7771;48.478;8.936;2024-01-27T10:35:42;8.27;;;5.70;;
15342;SDS011;7771;48.478;8.936;2024-01-27T10:38:08;13.03;;;6.90;;
15342;SDS011;7771;48.478;8.936;2024-01-27T10:40:36;8.57;;;6.33;;
15342;SDS011;7771;48.478;8.936;2024-01-27T10:43:05;9.20;;;6.30;;
15342;SDS011;7771;48.478;8.936;2024-01-27T10:45:35;9.50;;;6.30;;
15342;SDS011;7771;48.478;8.936;2024-01-27T10:48:02;10.00;;;6.27;;
15342;SDS011;7771;48.478;8.936;2024-01-27T10:50:30;22.03;;;11.87;;
15342;SDS011;7771;48.478;8.936;2024-01-27T10:52:57;15.87;;;9.23;;
15342;SDS011;7771;48.478;8.936;2024-01-27T10:55:24;15.70;;;9.70;;
15342;SDS011;7771;48.478;8.936;2024-01-27T10:57:53;11.67;;;8.00;;
15342;SDS011;7771;48.478;8.936;2024-01-27T11:00:21;14.00;;;8.37;;
15342;SDS011;7771;48.478;8.936;2024-01-27T11:02:48;15.93;;;9.03;;
15342;SDS011;7771;48.478;8.936;2024-01-27T11:05:16;11.23;;;8.07;;
15342;SDS011;7771;48.478;8.936;2024-01-27T11:07:44;13.03;;;8.10;;
15342;SDS011;7771;48.478;8.936;2024-01-27T11:10:10;12.60;;;8.20;;
15342;SDS011;7771;48.478;8.936;2024-01-27T11:12:38;11.07;;;7.50;;
15342;SDS011;7771;48.478;8.936;2024-01-27T11:15:06;14.10;;;8.40;;
15342;SDS011;7771;48.478;8.936;2024-01-27T11:17:38;13.93;;;8.07;;
15342;SDS011;7771;48.478;8.936;2024-01-27T11:20:08;11.67;;;7.43;;
15342;SDS011;7771;48.478;8.936;2024-01-27T11:22:35;12.60;;;8.43;;
15342;SDS011;7771;48.478;8.936;2024-01-27T11:25:06;13.93;;;8.57;;
15342;SDS011;7771;48.478;8.936;2024-01-27T11:27:34;11.87;;;8.63;;
15342;SDS011;7771;48.478;8.936;2024-01-27T11:30:02;13.87;;;8.07;;
15342;SDS011;7771;48.478;8.936;2024-01-27T11:32:30;12.40;;;8.10;;
15342;SDS011;7771;48.478;8.936;2024-01-27T11:34:57;13.37;;;8.07;;
15342;SDS011;7771;48.478;8.936;2024-01-27T11:37:25;12.33;;;8.10;;
15342;SDS011;7771;48.478;8.936;2024-01-27T11:39:52;12.10;;;8.00;;
15342;SDS011;7771;48.478;8.936;2024-01-27T11:42:21;11.23;;;7.80;;
15342;SDS011;7771;48.478;8.936;2024-01-27T11:44:49;18.47;;;8.27;;
15342;SDS011;7771;48.478;8.936;2024-01-27T11:47:18;9.07;;;6.53;;
15342;SDS011;7771;48.478;8.936;2024-01-27T11:49:50;12.57;;;7.87;;
15342;SDS011;7771;48.478;8.936;2024-01-27T11:52:21;8.53;;;6.43;;
15342;SDS011;7771;48.478;8.936;2024-01-27T11:54:55;11.70;;;6.90;;
15342;SDS011;7771;48.478;8.936;2024-01-27T11:57:23;13.23;;;7.77;;
15342;SDS011;7771;48.478;8.936;2024-01-27T11:59:50;13.67;;;7.27;;
15342;SDS011;7771;48.478;8.936;2024-01-27T12:02:17;13.93;;;7.93;;
15342;SDS011;7771;48.478;8.936;2024-01-27T12:04:44;13.23;;;7.90;;
15342;SDS011;7771;48.478;8.936;2024-01-27T12:07:12;16.37;;;8.27;;
15342;SDS011;7771;48.478;8.936;2024-01-27T12:09:40;14.07;;;7.93;;
15342;SDS011;7771;48.478;8.936;2024-01-27T12:12:08;14.57;;;8.40;;
15342;SDS011;7771;48.478;8.936;2024-01-27T12:14:37;13.90;;;8.57;;
15342;SDS011;7771;48.478;8.936;2024-01-27T12:17:03;18.00;;;9.10;;
15342;SDS011;7771;48.478;8.936;2024-01-27T12:19:30;15.50;;;8.77;;
15342;SDS011;7771;48.478;8.936;2024-01-27T12:22:00;15.97;;;9.07;;
15342;SDS011;7771;48.478;8.936;2024-01-27T12:24:26;12.53;;;8.63;;
15342;SDS011;7771;48.478;8.936;2024-01-27T12:26:55;14.20;;;9.23;;
15342;SDS011;7771;48.478;8.936;2024-01-27T12:29:22;13.90;;;9.17;;
15342;SDS011;7771;48.478;8.936;2024-01-27T12:31:50;15.43;;;9.20;;
15342;SDS011;7771;48.478;8.936;2024-01-27T12:34:17;19.90;;;9.93;;
15342;SDS011;7771;48.478;8.936;2024-01-27T12:36:44;15.70;;;9.50;;
15342;SDS011;7771;48.478;8.936;2024-01-27T12:39:10;15.47;;;10.57;;
15342;SDS011;7771;48.478;8.936;2024-01-27T12:41:39;15.47;;;9.90;;
15342;SDS011;7771;48.478;8.936;2024-01-27T12:44:07;14.10;;;8.33;;
15342;SDS011;7771;48.478;8.936;2024-01-27T12:46:34;9.77;;;6.50;;
15342;SDS011;7771;48.478;8.936;2024-01-27T12:49:02;10.57;;;6.97;;
15342;SDS011;7771;48.478;8.936;2024-01-27T12:51:30;9.17;;;7.10;;
15342;SDS011;7771;48.478;8.936;2024-01-27T12:53:59;10.60;;;7.77;;
15342;SDS011;7771;48.478;8.936;2024-01-27T12:56:26;10.80;;;7.80;;
15342;SDS011;7771;48.478;8.936;2024-01-27T12:58:55;11.97;;;7.60;;
15342;SDS011;7771;48.478;8.936;2024-01-27T13:01:22;13.53;;;6.93;;
15342;SDS011;7771;48.478;8.936;2024-01-27T13:03:49;13.57;;;7.07;;
15342;SDS011;7771;48.478;8.936;2024-01-27T13:06:16;10.60;;;6.90;;
15342;SDS011;7771;48.478;8.936;2024-01-27T13:08:43;9.80;;;7.57;;
15342;SDS011;7771;48.478;8.936;2024-01-27T13:11:09;15.07;;;9.20;;
15342;SDS011;7771;48.478;8.936;2024-01-27T13:13:37;10.87;;;8.40;;
15342;SDS011;7771;48.478;8.936;2024-01-27T13:16:03;12.47;;;7.70;;
15342;SDS011;7771;48.478;8.936;2024-01-27T13:18:32;13.07;;;8.17;;
15342;SDS011;7771;48.478;8.936;2024-01-27T13:21:00;14.87;;;8.77;;
15342;SDS011;7771;48.478;8.936;2024-01-27T13:23:27;11.73;;;8.37;;
15342;SDS011;7771;48.478;8.936;2024-01-27T13:25:54;11.47;;;7.40;;
15342;SDS011;7771;48.478;8.936;2024-01-27T13:28:21;13.30;;;7.40;;
15342;SDS011;7771;48.478;8.936;2024-01-27T13:30:48;12.00;;;7.90;;
15342;SDS011;7771;48.478;8.936;2024-01-27T13:33:16;10.97;;;7.20;;
15342;SDS011;7771;48.478;8.936;2024-01-27T13:35:42;12.57;;;8.93;;
15342;SDS011;7771;48.478;8.936;2024-01-27T13:38:09;9.67;;;6.50;;
15342;SDS011;7771;48.478;8.936;2024-01-27T13:40:36;9.97;;;7.60;;
15342;SDS011;7771;48.478;8.936;2024-01-27T13:43:04;12.03;;;8.17;;
15342;SDS011;7771;48.478;8.936;2024-01-27T13:45:30;12.50;;;7.70;;
15342;SDS011;7771;48.478;8.936;2024-01-27T13:47:58;11.10;;;7.43;;
15342;SDS011;7771;48.478;8.936;2024-01-27T13:50:26;16.93;;;8.37;;
15342;SDS011;7771;48.478;8.936;2024-01-27T13:52:53;10.27;;;7.27;;
15342;SDS011;7771;48.478;8.936;2024-01-27T13:55:20;17.87;;;10.00;;
15342;SDS011;7771;48.478;8.936;2024-01-27T13:57:47;10.33;;;7.90;;
15342;SDS011;7771;48.478;8.936;2024-01-27T14:00:15;13.57;;;7.93;;
15342;SDS011;7771;48.478;8.936;2024-01-27T14:02:42;13.47;;;7.90;;
15342;SDS011;7771;48.478;8.936;2024-01-27T14:05:10;12.27;;;8.20;;
15342;SDS011;7771;48.478;8.936;2024-01-27T14:07:36;12.10;;;7.33;;
15342;SDS011;7771;48.478;8.936;2024-01-27T14:10:04;12.47;;;7.70;;
15342;SDS011;7771;48.478;8.936;2024-01-27T14:12:33;12.70;;;7.67;;
15342;SDS011;7771;48.478;8.936;2024-01-27T14:15:03;10.23;;;7.77;;
15342;SDS011;7771;48.478;8.936;2024-01-27T14:17:33;11.30;;;7.13;;
15342;SDS011;7771;48.478;8.936;2024-01-27T14:19:59;9.93;;;7.33;;
15342;SDS011;7771;48.478;8.936;2024-01-27T14:22:26;9.20;;;7.33;;
15342;SDS011;7771;48.478;8.936;2024-01-27T14:24:53;13.73;;;8.03;;
15342;SDS011;7771;48.478;8.936;2024-01-27T14:27:19;14.67;;;8.33;;
15342;SDS011;7771;48.478;8.936;2024-01-27T14:29:47;13.73;;;9.03;;
15342;SDS011;7771;48.478;8.936;2024-01-27T14:32:15;14.17;;;9.30;;
15342;SDS011;7771;48.478;8.936;2024-01-27T14:34:41;13.97;;;9.70;;
15342;SDS011;7771;48.478;8.936;2024-01-27T14:37:08;12.80;;;9.20;;
15342;SDS011;7771;48.478;8.936;2024-01-27T14:39:35;14.37;;;9.87;;
15342;SDS011;7771;48.478;8.936;2024-01-27T14:42:03;23.47;;;14.13;;
15342;SDS011;7771;48.478;8.936;2024-01-27T14:44:32;16.43;;;9.73;;
15342;SDS011;7771;48.478;8.936;2024-01-27T14:46:59;15.67;;;9.73;;
15342;SDS011;7771;48.478;8.936;2024-01-27T14:49:27;13.13;;;7.60;;
15342;SDS011;7771;48.478;8.936;2024-01-27T14:51:55;11.90;;;7.63;;
15342;SDS011;7771;48.478;8.936;2024-01-27T14:54:22;13.47;;;8.10;;
15342;SDS011;7771;48.478;8.936;2024-01-27T14:56:50;10.53;;;7.70;;
15342;SDS011;7771;48.478;8.936;2024-01-27T14:59:17;11.37;;;7.40;;
15342;SDS011;7771;48.478;8.936;2024-01-27T15:01:45;14.97;;;7.90;;
15342;SDS011;7771;48.478;8.936;2024-01-27T15:04:13;16.53;;;9.17;;
15342;SDS011;7771;48.478;8.936;2024-01-27T15:06:40;15.03;;;8.30;;